Time;durP1;ratioP1;P1;durP2;ratioP2;P2;SDS_P1;SDS_P2;PMS_P1;PMS_P2;Temp;Humidity;BMP_temperature;BMP_pressure;BME280_temperature;BME280_humidity;BME280_pressure;Samples;Min_cycle;Max_cycle;Signal;HPM_P1;HPM_P2
2023/07/13 00:00:36;;;;;;;17.10;3.05;;;;;;;;;;5008950;28;92490;-89
2023/07/13 00:03:04;;;;;;;10.55;2.05;;;;;;;;;;5018379;27;93105;-86
2023/07/13 00:05:31;;;;;;;13.73;2.40;;;;;;;;;;4997418;28;92572;-88
2023/07/13 00:07:58;;;;;;;9.52;2.63;;;;;;;;;;5006999;28;94276;-83
2023/07/13 00:10:26;;;;;;;15.93;1.80;;;;;;;;;;5000136;28;94499;-83
2023/07/13 00:12:54;;;;;;;13.93;2.13;;;;;;;;;;5022554;28;91857;-87
2023/07/13 00:15:25;;;;;;;14.77;2.85;;;;;;;;;;5020251;28;92647;-83
2023/07/13 00:17:52;;;;;;;13.18;2.40;;;;;;;;;;5010567;28;94727;-85
2023/07/13 00:20:21;;;;;;;11.90;2.30;;;;;;;;;;5001207;28;94857;-83
2023/07/13 00:22:49;;;;;;;10.32;2.13;;;;;;;;;;4998091;28;95443;-82
2023/07/13 00:25:15;;;;;;;10.93;1.77;;;;;;;;;;5005375;28;92463;-86
2023/07/13 00:27:43;;;;;;;11.18;2.50;;;;;;;;;;4998546;28;93495;-83
2023/07/13 00:30:11;;;;;;;17.65;2.58;;;;;;;;;;5008496;28;94588;-82
2023/07/13 00:32:37;;;;;;;11.88;2.42;;;;;;;;;;5007280;28;92581;-87
2023/07/13 00:35:04;;;;;;;10.38;1.85;;;;;;;;;;4996066;28;94129;-85
2023/07/13 00:37:31;;;;;;;10.75;2.50;;;;;;;;;;5003567;28;93747;-88
2023/07/13 00:39:58;;;;;;;13.48;2.60;;;;;;;;;;5001839;28;92425;-82
2023/07/13 00:42:26;;;;;;;7.32;1.63;;;;;;;;;;5001296;28;94754;-84
2023/07/13 00:45:10;;;;;;;9.63;1.98;;;;;;;;;;4997408;28;96276;-87
2023/07/13 00:47:37;;;;;;;15.60;2.50;;;;;;;;;;5008219;28;96748;-86
2023/07/13 00:50:06;;;;;;;17.25;2.42;;;;;;;;;;5015457;28;94499;-87
2023/07/13 00:52:35;;;;;;;15.20;2.42;;;;;;;;;;5024061;28;92445;-88
2023/07/13 00:55:01;;;;;;;14.40;2.22;;;;;;;;;;5015576;28;94388;-87
2023/07/13 00:57:28;;;;;;;10.18;2.53;;;;;;;;;;5015786;28;93762;-79
2023/07/13 00:59:57;;;;;;;10.13;2.13;;;;;;;;;;5013018;28;92898;-79
2023/07/13 01:02:24;;;;;;;12.75;2.42;;;;;;;;;;5016078;28;93814;-81
2023/07/13 01:04:50;;;;;;;10.75;2.17;;;;;;;;;;5016311;28;94239;-79
2023/07/13 01:07:18;;;;;;;9.48;2.05;;;;;;;;;;4998544;28;92470;-79
2023/07/13 01:09:45;;;;;;;13.10;2.28;;;;;;;;;;4993030;28;96855;-78
2023/07/13 01:12:11;;;;;;;14.10;2.38;;;;;;;;;;4995388;28;92420;-78
2023/07/13 01:14:38;;;;;;;13.88;2.53;;;;;;;;;;4994434;28;96385;-77
2023/07/13 01:17:05;;;;;;;12.35;2.10;;;;;;;;;;5012559;28;94642;-78
2023/07/13 01:19:39;;;;;;;11.63;2.35;;;;;;;;;;4995723;28;92435;-78
2023/07/13 01:22:11;;;;;;;14.57;2.42;;;;;;;;;;4999923;28;95886;-88
2023/07/13 01:24:39;;;;;;;12.02;2.40;;;;;;;;;;5000112;28;96028;-86
2023/07/13 01:27:06;;;;;;;11.63;2.60;;;;;;;;;;5001841;28;91808;-86
2023/07/13 01:29:34;;;;;;;11.40;2.45;;;;;;;;;;5017299;28;92910;-85
2023/07/13 01:32:01;;;;;;;10.52;2.58;;;;;;;;;;5007056;28;94373;-83
2023/07/13 01:34:27;;;;;;;10.02;2.30;;;;;;;;;;4998085;28;94840;-83
2023/07/13 01:36:54;;;;;;;15.45;2.28;;;;;;;;;;4996472;28;94831;-83
2023/07/13 01:39:21;;;;;;;18.70;3.28;;;;;;;;;;5001564;28;93025;-84
2023/07/13 01:41:47;;;;;;;12.80;2.38;;;;;;;;;;5012651;28;94603;-84
2023/07/13 01:44:14;;;;;;;9.85;2.40;;;;;;;;;;5002478;28;94441;-84
2023/07/13 01:46:40;;;;;;;12.80;2.67;;;;;;;;;;5005997;28;92761;-86
2023/07/13 01:49:07;;;;;;;10.15;2.15;;;;;;;;;;4996904;28;94726;-84
2023/07/13 01:51:33;;;;;;;13.75;2.80;;;;;;;;;;5009653;28;92869;-84
2023/07/13 01:54:00;;;;;;;6.40;2.30;;;;;;;;;;5013623;28;93617;-85
2023/07/13 01:56:26;;;;;;;10.57;2.40;;;;;;;;;;5008441;28;94649;-86
2023/07/13 01:58:53;;;;;;;10.68;2.10;;;;;;;;;;4992728;28;94939;-86
2023/07/13 02:01:19;;;;;;;10.70;2.42;;;;;;;;;;4997490;28;96009;-86
2023/07/13 02:03:46;;;;;;;15.68;2.38;;;;;;;;;;4994598;28;94562;-85
2023/07/13 02:06:13;;;;;;;15.10;2.25;;;;;;;;;;5002881;28;92419;-86
2023/07/13 02:08:40;;;;;;;12.57;2.85;;;;;;;;;;4994308;28;94200;-86
2023/07/13 02:11:06;;;;;;;13.70;2.70;;;;;;;;;;5007014;28;94658;-87
2023/07/13 02:13:33;;;;;;;9.82;2.38;;;;;;;;;;5004825;28;92499;-86
2023/07/13 02:15:59;;;;;;;12.45;2.63;;;;;;;;;;4994982;28;93115;-83
2023/07/13 02:18:26;;;;;;;8.50;2.50;;;;;;;;;;4999227;27;92901;-85
2023/07/13 02:20:54;;;;;;;12.60;2.83;;;;;;;;;;5003409;28;94647;-84
2023/07/13 02:23:20;;;;;;;6.72;2.15;;;;;;;;;;5002933;28;96960;-84
2023/07/13 02:25:56;;;;;;;13.75;2.97;;;;;;;;;;4993589;28;92614;-82
2023/07/13 02:28:22;;;;;;;11.98;3.42;;;;;;;;;;4998333;28;94685;-78
2023/07/13 02:30:48;;;;;;;12.55;2.42;;;;;;;;;;4998447;28;94579;-81
2023/07/13 02:33:15;;;;;;;18.60;2.95;;;;;;;;;;4997958;28;92536;-85
2023/07/13 02:35:41;;;;;;;16.80;2.70;;;;;;;;;;4994678;28;94865;-86
2023/07/13 02:38:08;;;;;;;12.93;3.05;;;;;;;;;;5005984;28;92753;-87
2023/07/13 02:40:35;;;;;;;9.10;2.75;;;;;;;;;;5002728;28;94832;-86
2023/07/13 02:43:02;;;;;;;14.30;2.67;;;;;;;;;;5006778;28;94913;-86
2023/07/13 02:45:28;;;;;;;16.38;3.47;;;;;;;;;;5009342;28;92578;-86
2023/07/13 02:47:55;;;;;;;13.23;2.53;;;;;;;;;;4996247;28;94873;-86
2023/07/13 02:50:21;;;;;;;10.55;2.60;;;;;;;;;;4997231;28;94445;-86
2023/07/13 02:52:48;;;;;;;9.07;2.88;;;;;;;;;;4998106;28;92414;-88
2023/07/13 02:55:14;;;;;;;12.55;3.10;;;;;;;;;;5000316;28;94485;-87
2023/07/13 02:57:41;;;;;;;10.98;2.83;;;;;;;;;;4997902;28;92547;-82
2023/07/13 03:00:07;;;;;;;21.88;3.22;;;;;;;;;;4997623;28;93362;-83
2023/07/13 03:02:34;;;;;;;16.60;3.97;;;;;;;;;;4995567;28;94463;-82
2023/07/13 03:05:01;;;;;;;15.63;3.08;;;;;;;;;;4997100;28;91796;-82
2023/07/13 03:07:27;;;;;;;12.48;3.10;;;;;;;;;;4997063;28;93198;-80
2023/07/13 03:09:55;;;;;;;14.68;3.53;;;;;;;;;;4996445;28;93848;-82
2023/07/13 03:12:22;;;;;;;13.20;3.42;;;;;;;;;;4995356;28;95299;-81
2023/07/13 03:14:48;;;;;;;16.08;3.38;;;;;;;;;;4996308;28;96553;-82
2023/07/13 03:17:15;;;;;;;12.68;3.10;;;;;;;;;;5011077;28;95055;-82
2023/07/13 03:19:41;;;;;;;14.63;3.10;;;;;;;;;;5017656;28;93808;-79
2023/07/13 03:22:08;;;;;;;18.02;4.13;;;;;;;;;;5012913;28;93650;-79
2023/07/13 03:24:37;;;;;;;13.38;2.92;;;;;;;;;;5005576;28;92802;-87
2023/07/13 03:27:05;;;;;;;;;;;;;;;;;;5010252;28;94276;-86
2023/07/13 03:29:31;;;;;;;24.30;3.72;;;;;;;;;;5012002;28;123165;-90
2023/07/13 03:31:58;;;;;;;19.98;3.90;;;;;;;;;;5011310;28;92501;-87
2023/07/13 03:34:24;;;;;;;14.40;3.47;;;;;;;;;;5013649;28;93374;-83
2023/07/13 03:36:53;;;;;;;14.38;3.50;;;;;;;;;;5000197;28;97080;-83
2023/07/13 03:39:20;;;;;;;16.23;3.72;;;;;;;;;;5014501;28;92432;-81
2023/07/13 03:41:46;;;;;;;17.95;4.07;;;;;;;;;;5011895;28;94651;-82
2023/07/13 03:44:13;;;;;;;27.42;3.88;;;;;;;;;;5013838;28;92516;-83
2023/07/13 03:46:39;;;;;;;23.42;4.68;;;;;;;;;;4996947;28;94755;-83
2023/07/13 03:49:06;;;;;;;16.88;3.92;;;;;;;;;;5008841;28;94407;-82
2023/07/13 03:51:32;;;;;;;19.77;4.43;;;;;;;;;;5001451;28;92388;-82
2023/07/13 03:53:59;;;;;;;15.88;4.47;;;;;;;;;;4996324;28;93571;-82
2023/07/13 03:56:26;;;;;;;17.50;4.38;;;;;;;;;;4999144;28;94441;-82
2023/07/13 03:58:53;;;;;;;16.10;3.90;;;;;;;;;;5007202;28;93358;-82
2023/07/13 04:01:21;;;;;;;24.60;4.30;;;;;;;;;;5006612;28;95119;-82
2023/07/13 04:03:48;;;;;;;21.02;4.30;;;;;;;;;;5013902;28;92929;-82
2023/07/13 04:06:23;;;;;;;13.68;3.45;;;;;;;;;;5006656;28;94226;-83
2023/07/13 04:08:51;;;;;;;17.42;4.05;;;;;;;;;;5004182;28;93932;-82
2023/07/13 04:11:19;;;;;;;16.23;3.75;;;;;;;;;;5013539;28;92493;-84
2023/07/13 04:13:46;;;;;;;16.40;4.47;;;;;;;;;;5006434;28;93332;-83
2023/07/13 04:16:13;;;;;;;18.00;4.60;;;;;;;;;;5000248;28;94533;-83
2023/07/13 04:18:41;;;;;;;29.20;4.25;;;;;;;;;;5009851;28;92020;-84
2023/07/13 04:21:09;;;;;;;15.95;4.10;;;;;;;;;;4999987;28;93620;-83
2023/07/13 04:23:35;;;;;;;17.70;3.72;;;;;;;;;;5010967;28;94525;-82
2023/07/13 04:26:02;;;;;;;19.60;3.95;;;;;;;;;;5010624;28;94809;-83
2023/07/13 04:28:30;;;;;;;24.02;4.75;;;;;;;;;;5000154;28;92795;-84
2023/07/13 04:30:56;;;;;;;19.95;4.35;;;;;;;;;;5005807;28;93720;-83
2023/07/13 04:33:23;;;;;;;18.67;4.80;;;;;;;;;;5005239;28;93795;-83
2023/07/13 04:35:54;;;;;;;19.65;4.55;;;;;;;;;;4999919;28;94487;-83
2023/07/13 04:38:21;;;;;;;15.82;3.95;;;;;;;;;;4994509;28;92561;-82
2023/07/13 04:40:47;;;;;;;23.00;4.97;;;;;;;;;;5014006;28;94664;-86
2023/07/13 04:43:14;;;;;;;17.20;4.47;;;;;;;;;;5012375;28;93790;-90
2023/07/13 04:45:41;;;;;;;18.50;4.63;;;;;;;;;;5005400;28;93942;-84
2023/07/13 04:48:07;;;;;;;25.58;5.28;;;;;;;;;;5015568;28;94411;-85
2023/07/13 04:50:37;;;;;;;29.27;5.50;;;;;;;;;;5011212;28;94888;-85
2023/07/13 04:53:04;;;;;;;21.80;5.00;;;;;;;;;;4995334;28;96826;-82
2023/07/13 04:55:31;;;;;;;18.67;4.55;;;;;;;;;;4993376;28;94054;-78
2023/07/13 04:58:02;;;;;;;19.55;5.07;;;;;;;;;;5010276;28;92527;-79
2023/07/13 05:00:29;;;;;;;28.25;4.80;;;;;;;;;;5009438;28;93178;-79
2023/07/13 05:02:57;;;;;;;17.63;4.97;;;;;;;;;;4993613;28;93529;-79
2023/07/13 05:05:24;;;;;;;28.15;5.68;;;;;;;;;;4996196;28;92493;-78
2023/07/13 05:07:51;;;;;;;24.05;5.43;;;;;;;;;;5000977;28;92857;-79
2023/07/13 05:10:18;;;;;;;20.35;5.00;;;;;;;;;;5013364;28;92609;-79
2023/07/13 05:12:44;;;;;;;24.15;4.97;;;;;;;;;;5014512;28;94400;-79
2023/07/13 05:15:11;;;;;;;24.05;5.85;;;;;;;;;;5006770;28;95911;-80
2023/07/13 05:17:40;;;;;;;27.52;6.85;;;;;;;;;;5006050;28;92544;-80
2023/07/13 05:20:08;;;;;;;26.88;6.00;;;;;;;;;;4997045;28;94118;-87
2023/07/13 05:22:35;;;;;;;27.75;5.70;;;;;;;;;;5013497;28;94712;-86
2023/07/13 05:25:03;;;;;;;29.45;6.40;;;;;;;;;;5007604;28;92413;-89
2023/07/13 05:27:29;;;;;;;23.83;5.70;;;;;;;;;;4999601;28;94324;-88
2023/07/13 05:29:56;;;;;;;31.15;6.03;;;;;;;;;;4999087;28;92423;-88
2023/07/13 05:32:22;;;;;;;20.08;6.50;;;;;;;;;;4995950;28;94240;-89
2023/07/13 05:34:49;;;;;;;29.25;6.15;;;;;;;;;;4996523;28;94557;-89
2023/07/13 05:37:15;;;;;;;31.05;6.50;;;;;;;;;;5000576;28;92386;-82
2023/07/13 05:39:42;;;;;;;29.35;7.25;;;;;;;;;;5004148;28;94939;-87
2023/07/13 05:42:08;;;;;;;26.17;6.70;;;;;;;;;;5005485;28;97685;-85
2023/07/13 05:44:37;;;;;;;34.53;7.20;;;;;;;;;;5006175;28;92526;-84
2023/07/13 05:47:04;;;;;;;24.73;6.93;;;;;;;;;;5004785;28;94406;-83
2023/07/13 05:49:32;;;;;;;27.67;7.57;;;;;;;;;;5008446;28;94309;-72
2023/07/13 05:51:58;;;;;;;26.80;7.35;;;;;;;;;;5004686;28;93663;-73
2023/07/13 05:54:25;;;;;;;30.15;7.40;;;;;;;;;;5008323;28;93494;-72
2023/07/13 05:56:51;;;;;;;31.98;7.30;;;;;;;;;;4995322;28;91683;-72
2023/07/13 05:59:18;;;;;;;41.10;7.57;;;;;;;;;;4993784;28;92496;-75
2023/07/13 06:01:44;;;;;;;39.28;7.88;;;;;;;;;;4997314;28;94374;-75
2023/07/13 06:04:11;;;;;;;30.40;8.05;;;;;;;;;;4995949;28;94949;-73
2023/07/13 06:06:37;;;;;;;27.02;7.97;;;;;;;;;;5000553;28;98381;-74
2023/07/13 06:09:03;;;;;;;32.28;7.97;;;;;;;;;;4998639;28;93426;-74
2023/07/13 06:11:30;;;;;;;32.25;8.50;;;;;;;;;;5003848;28;92425;-74
2023/07/13 06:13:57;;;;;;;26.45;7.10;;;;;;;;;;4995748;28;93662;-74
2023/07/13 06:16:23;;;;;;;35.80;9.90;;;;;;;;;;5005997;28;92467;-74
2023/07/13 06:18:50;;;;;;;36.92;9.18;;;;;;;;;;5012031;28;92911;-74
2023/07/13 06:21:17;;;;;;;33.30;9.35;;;;;;;;;;5016890;28;92790;-74
2023/07/13 06:23:45;;;;;;;27.38;9.02;;;;;;;;;;5001188;28;94363;-74
2023/07/13 06:26:11;;;;;;;28.98;8.52;;;;;;;;;;5017039;28;94632;-75
2023/07/13 06:28:37;;;;;;;28.77;8.55;;;;;;;;;;5006179;28;95937;-75
2023/07/13 06:31:05;;;;;;;28.63;8.75;;;;;;;;;;5016839;28;92488;-74
2023/07/13 06:33:31;;;;;;;40.92;9.57;;;;;;;;;;5002070;28;93310;-74
2023/07/13 06:35:58;;;;;;;31.90;8.60;;;;;;;;;;5014328;28;92782;-75
2023/07/13 06:38:24;;;;;;;32.53;9.40;;;;;;;;;;5007061;28;93226;-74
2023/07/13 06:40:51;;;;;;;35.38;10.68;;;;;;;;;;4996086;28;93977;-74
2023/07/13 06:43:18;;;;;;;36.15;10.55;;;;;;;;;;5009508;28;92993;-74
2023/07/13 06:45:49;;;;;;;34.75;10.43;;;;;;;;;;5013843;28;94332;-75
2023/07/13 06:48:17;;;;;;;39.58;10.23;;;;;;;;;;5019193;28;92532;-75
2023/07/13 06:50:43;;;;;;;26.42;9.45;;;;;;;;;;5026720;28;94314;-74
2023/07/13 06:53:11;;;;;;;31.75;9.65;;;;;;;;;;5006898;28;95622;-74
2023/07/13 06:55:37;;;;;;;34.53;9.57;;;;;;;;;;4994764;28;94037;-74
2023/07/13 06:58:04;;;;;;;28.52;9.73;;;;;;;;;;5009986;28;92473;-73
2023/07/13 07:00:31;;;;;;;41.95;10.27;;;;;;;;;;5004239;28;93666;-73
2023/07/13 07:02:57;;;;;;;32.63;10.07;;;;;;;;;;5018443;28;92564;-74
2023/07/13 07:05:24;;;;;;;30.50;10.80;;;;;;;;;;5015586;28;94327;-73
2023/07/13 07:07:51;;;;;;;29.77;9.75;;;;;;;;;;5015322;28;93636;-74
2023/07/13 07:10:18;;;;;;;25.45;9.68;;;;;;;;;;5015128;28;91910;-74
2023/07/13 07:12:45;;;;;;;33.38;9.50;;;;;;;;;;5002274;28;92903;-74
2023/07/13 07:15:12;;;;;;;31.00;10.23;;;;;;;;;;4998912;28;93258;-74
2023/07/13 07:17:38;;;;;;;39.38;9.93;;;;;;;;;;5008009;28;94769;-74
2023/07/13 07:20:05;;;;;;;34.17;10.32;;;;;;;;;;5015720;28;93404;-74
2023/07/13 07:22:32;;;;;;;30.92;10.00;;;;;;;;;;5010476;28;92976;-75
2023/07/13 07:24:58;;;;;;;33.90;10.38;;;;;;;;;;5015085;28;93250;-75
2023/07/13 07:27:25;;;;;;;38.40;10.73;;;;;;;;;;5006160;28;95140;-74
2023/07/13 07:29:57;;;;;;;32.83;10.93;;;;;;;;;;4999766;28;92692;-75
2023/07/13 07:32:28;;;;;;;45.17;10.75;;;;;;;;;;5013834;28;96217;-75
2023/07/13 07:35:15;;;;;;;27.88;9.35;;;;;;;;;;5005229;28;93933;-75
2023/07/13 07:37:41;;;;;;;28.70;8.45;;;;;;;;;;5009538;28;92540;-75
2023/07/13 07:40:10;;;;;;;23.90;8.18;;;;;;;;;;5012205;28;94307;-76
2023/07/13 07:42:40;;;;;;;33.25;9.00;;;;;;;;;;5002354;28;94823;-75
2023/07/13 07:45:06;;;;;;;27.88;8.50;;;;;;;;;;4997773;28;94640;-75
2023/07/13 07:47:33;;;;;;;35.58;9.35;;;;;;;;;;5008992;28;93425;-75
2023/07/13 07:49:59;;;;;;;21.58;8.45;;;;;;;;;;5015602;28;92487;-75
2023/07/13 07:52:26;;;;;;;30.50;9.32;;;;;;;;;;5015829;28;94545;-75
2023/07/13 07:54:52;;;;;;;21.45;7.88;;;;;;;;;;5015722;28;92691;-75
2023/07/13 07:57:22;;;;;;;24.23;8.57;;;;;;;;;;5015519;28;92724;-75
2023/07/13 07:59:51;;;;;;;28.83;9.63;;;;;;;;;;5017798;28;93027;-75
2023/07/13 08:02:20;;;;;;;29.20;8.52;;;;;;;;;;5015453;28;92446;-75
2023/07/13 08:04:50;;;;;;;23.70;8.05;;;;;;;;;;5015529;28;92982;-75
2023/07/13 08:07:19;;;;;;;27.27;8.05;;;;;;;;;;5011008;28;95581;-75
2023/07/13 08:09:46;;;;;;;28.42;8.38;;;;;;;;;;5003868;28;92541;-75
2023/07/13 08:12:13;;;;;;;24.45;8.77;;;;;;;;;;5015253;28;93540;-75
2023/07/13 08:14:42;;;;;;;25.83;8.70;;;;;;;;;;4998847;28;93256;-75
2023/07/13 08:17:18;;;;;;;28.38;8.57;;;;;;;;;;5006605;28;92718;-75
2023/07/13 08:19:44;;;;;;;22.88;7.50;;;;;;;;;;5015050;28;93285;-75
2023/07/13 08:22:11;;;;;;;21.10;6.78;;;;;;;;;;5018053;28;93487;-75
2023/07/13 08:24:38;;;;;;;20.98;6.45;;;;;;;;;;5015554;28;93523;-75
2023/07/13 08:27:04;;;;;;;20.15;6.40;;;;;;;;;;4996558;28;93603;-76
2023/07/13 08:29:33;;;;;;;24.90;7.07;;;;;;;;;;4994831;28;92552;-75
2023/07/13 08:32:00;;;;;;;26.80;7.13;;;;;;;;;;4992203;28;94910;-76
2023/07/13 08:34:26;;;;;;;20.63;6.07;;;;;;;;;;4994388;28;92427;-75
2023/07/13 08:36:53;;;;;;;14.13;5.00;;;;;;;;;;4994805;28;92444;-75
2023/07/13 08:39:19;;;;;;;25.40;5.10;;;;;;;;;;4994861;28;93182;-75
2023/07/13 08:41:50;;;;;;;8.15;2.20;;;;;;;;;;4994031;28;92544;-75
2023/07/13 08:44:37;;;;;;;11.65;2.85;;;;;;;;;;4997509;28;92695;-75
2023/07/13 08:47:04;;;;;;;8.15;2.38;;;;;;;;;;4992374;28;93489;-75
2023/07/13 08:49:30;;;;;;;12.63;2.40;;;;;;;;;;5015184;28;91694;-75
2023/07/13 08:52:04;;;;;;;10.25;2.45;;;;;;;;;;5015034;28;92405;-75
2023/07/13 08:54:33;;;;;;;10.50;3.10;;;;;;;;;;5003343;28;93448;-75
2023/07/13 08:57:02;;;;;;;10.98;2.85;;;;;;;;;;5011136;28;94817;-75
2023/07/13 08:59:32;;;;;;;11.38;3.22;;;;;;;;;;5008970;28;95898;-75
2023/07/13 09:02:06;;;;;;;13.20;3.50;;;;;;;;;;4994309;28;93007;-75
2023/07/13 09:04:35;;;;;;;10.98;2.83;;;;;;;;;;4997775;28;92717;-75
2023/07/13 09:07:02;;;;;;;8.32;2.70;;;;;;;;;;4993960;28;93844;-75
2023/07/13 09:09:33;;;;;;;9.55;2.95;;;;;;;;;;4994381;28;92480;-75
2023/07/13 09:12:04;;;;;;;9.82;3.03;;;;;;;;;;4994083;28;93627;-75
2023/07/13 09:14:37;;;;;;;11.07;3.15;;;;;;;;;;4994895;28;92626;-75
2023/07/13 09:17:04;;;;;;;6.97;2.53;;;;;;;;;;5003959;28;92416;-75
2023/07/13 09:19:32;;;;;;;13.18;3.53;;;;;;;;;;5014441;28;93151;-75
2023/07/13 09:22:00;;;;;;;17.17;3.35;;;;;;;;;;5012540;28;96916;-75
2023/07/13 09:24:27;;;;;;;11.57;3.10;;;;;;;;;;5014661;28;92463;-75
2023/07/13 09:26:53;;;;;;;10.27;3.13;;;;;;;;;;5015757;28;93157;-75
2023/07/13 09:29:26;;;;;;;11.88;3.13;;;;;;;;;;5014157;28;92445;-75
2023/07/13 09:31:54;;;;;;;12.23;2.67;;;;;;;;;;5013976;28;93112;-75
2023/07/13 09:34:20;;;;;;;15.10;3.55;;;;;;;;;;5012314;28;93428;-75
2023/07/13 09:36:47;;;;;;;10.07;3.22;;;;;;;;;;5013621;28;92465;-75
2023/07/13 09:39:16;;;;;;;14.77;2.85;;;;;;;;;;5014562;28;93250;-76
2023/07/13 09:41:59;;;;;;;14.13;3.05;;;;;;;;;;5013922;28;93617;-76
2023/07/13 09:44:35;;;;;;;6.72;2.30;;;;;;;;;;4993779;28;92426;-75
2023/07/13 09:47:02;;;;;;;11.57;3.67;;;;;;;;;;5000251;28;95008;-75
2023/07/13 09:49:33;;;;;;;11.40;3.03;;;;;;;;;;5017020;28;94383;-76
2023/07/13 09:52:00;;;;;;;8.93;2.42;;;;;;;;;;5013931;28;93591;-75
2023/07/13 09:54:27;;;;;;;11.27;2.80;;;;;;;;;;5011347;28;93587;-75
2023/07/13 09:56:57;;;;;;;7.68;2.40;;;;;;;;;;5013739;28;92453;-75
2023/07/13 09:59:29;;;;;;;9.07;2.60;;;;;;;;;;5013941;28;93359;-75
2023/07/13 10:01:55;;;;;;;7.93;2.10;;;;;;;;;;4994639;28;93410;-75
2023/07/13 10:04:27;;;;;;;7.43;2.38;;;;;;;;;;4994182;28;91957;-75
2023/07/13 10:07:04;;;;;;;8.82;2.70;;;;;;;;;;4994168;28;92454;-75
2023/07/13 10:09:54;;;;;;;8.30;2.50;;;;;;;;;;4993337;28;94944;-76
2023/07/13 10:12:23;;;;;;;10.50;2.28;;;;;;;;;;4995121;28;94869;-75
2023/07/13 10:14:57;;;;;;;8.52;2.60;;;;;;;;;;4993435;28;93679;-75
2023/07/13 10:17:43;;;;;;;10.40;2.40;;;;;;;;;;5007760;28;92493;-75
2023/07/13 10:20:12;;;;;;;6.45;2.80;;;;;;;;;;5013498;28;93130;-75
2023/07/13 10:22:49;;;;;;;8.90;2.65;;;;;;;;;;5013046;28;93424;-76
2023/07/13 10:25:18;;;;;;;7.43;2.90;;;;;;;;;;5012453;28;92501;-75
2023/07/13 10:27:44;;;;;;;6.00;2.47;;;;;;;;;;5012746;28;93357;-75
2023/07/13 10:30:13;;;;;;;6.45;2.25;;;;;;;;;;5013588;28;91979;-76
2023/07/13 10:32:42;;;;;;;9.95;2.63;;;;;;;;;;5012903;28;92458;-75
2023/07/13 10:35:13;;;;;;;9.43;3.08;;;;;;;;;;5016351;28;93187;-75
2023/07/13 10:37:50;;;;;;;9.95;3.15;;;;;;;;;;5011597;28;94836;-75
2023/07/13 10:40:24;;;;;;;6.63;2.78;;;;;;;;;;5013192;28;97086;-75
2023/07/13 10:42:53;;;;;;;9.02;2.95;;;;;;;;;;5012802;28;93528;-75
2023/07/13 10:45:23;;;;;;;5.78;2.28;;;;;;;;;;5013121;28;92405;-75
2023/07/13 10:47:52;;;;;;;9.68;2.63;;;;;;;;;;5013246;28;93184;-76
2023/07/13 10:50:20;;;;;;;6.60;2.30;;;;;;;;;;5011638;28;93624;-75
2023/07/13 10:52:50;;;;;;;3.85;1.60;;;;;;;;;;5012992;28;92395;-76
2023/07/13 10:55:38;;;;;;;3.90;1.73;;;;;;;;;;5015983;28;93253;-76
2023/07/13 10:58:14;;;;;;;5.78;1.73;;;;;;;;;;5012689;28;92702;-76
2023/07/13 11:00:53;;;;;;;8.23;2.00;;;;;;;;;;5011514;28;93152;-75
2023/07/13 11:03:21;;;;;;;3.70;1.50;;;;;;;;;;5010729;28;96060;-76
2023/07/13 11:05:50;;;;;;;5.63;1.77;;;;;;;;;;5012047;28;92517;-76
2023/07/13 11:08:20;;;;;;;4.63;1.60;;;;;;;;;;5015250;28;96701;-76
2023/07/13 11:10:49;;;;;;;8.05;1.92;;;;;;;;;;5013127;28;93495;-75
2023/07/13 11:13:34;;;;;;;6.65;1.80;;;;;;;;;;4996127;28;92844;-76
2023/07/13 11:16:00;;;;;;;5.05;2.30;;;;;;;;;;5005842;28;93321;-75
2023/07/13 11:18:26;;;;;;;8.50;2.45;;;;;;;;;;5018937;28;93808;-76
2023/07/13 11:21:12;;;;;;;8.40;2.17;;;;;;;;;;5016665;28;93188;-76
2023/07/13 11:23:41;;;;;;;9.10;2.20;;;;;;;;;;5015834;28;93452;-76
2023/07/13 11:26:27;;;;;;;10.97;2.73;;;;;;;;;;5016163;28;92546;-76
2023/07/13 11:28:53;;;;;;;14.00;3.20;;;;;;;;;;4997960;28;94868;-75
2023/07/13 11:31:22;;;;;;;11.90;2.83;;;;;;;;;;4995637;28;92507;-75
2023/07/13 11:33:51;;;;;;;11.73;3.25;;;;;;;;;;4995591;28;92724;-75
2023/07/13 11:36:21;;;;;;;7.95;2.47;;;;;;;;;;4995894;28;93241;-75
2023/07/13 11:39:01;;;;;;;7.55;2.53;;;;;;;;;;4995432;28;93617;-75
2023/07/13 11:41:35;;;;;;;11.13;2.40;;;;;;;;;;4998724;28;92919;-75
2023/07/13 11:44:06;;;;;;;8.48;2.50;;;;;;;;;;5011909;28;93411;-75
2023/07/13 11:46:32;;;;;;;7.97;2.40;;;;;;;;;;5016595;28;91676;-75
2023/07/13 11:48:59;;;;;;;14.80;2.97;;;;;;;;;;5014672;28;92808;-74
2023/07/13 11:51:33;;;;;;;12.98;4.28;;;;;;;;;;5015096;28;93693;-72
2023/07/13 11:54:02;;;;;;;16.48;4.72;;;;;;;;;;5013935;28;94868;-72
2023/07/13 11:56:29;;;;;;;13.98;4.18;;;;;;;;;;5015707;28;94303;-72
2023/07/13 11:58:57;;;;;;;12.75;4.18;;;;;;;;;;5015245;28;93662;-73
2023/07/13 12:01:25;;;;;;;11.00;3.03;;;;;;;;;;5015711;28;92425;-74
2023/07/13 12:03:53;;;;;;;8.15;2.75;;;;;;;;;;5017838;28;93015;-74
2023/07/13 12:06:29;;;;;;;8.90;2.60;;;;;;;;;;5015438;28;92490;-74
2023/07/13 12:08:58;;;;;;;8.73;3.45;;;;;;;;;;5015697;28;92921;-75
2023/07/13 12:11:24;;;;;;;7.93;3.17;;;;;;;;;;5015676;28;92676;-75
2023/07/13 12:13:50;;;;;;;8.68;3.13;;;;;;;;;;5015112;28;92454;-75
2023/07/13 12:16:23;;;;;;;10.27;3.45;;;;;;;;;;5015682;28;92473;-75
2023/07/13 12:18:51;;;;;;;10.90;4.00;;;;;;;;;;5012836;28;95858;-75
2023/07/13 12:21:19;;;;;;;14.07;4.35;;;;;;;;;;5015416;28;92760;-75
2023/07/13 12:23:48;;;;;;;6.88;3.30;;;;;;;;;;5015011;28;92482;-75
2023/07/13 12:26:15;;;;;;;14.48;3.65;;;;;;;;;;5018122;28;93598;-75
2023/07/13 12:28:50;;;;;;;8.10;3.08;;;;;;;;;;5014659;28;93715;-75
2023/07/13 12:31:36;;;;;;;7.95;2.65;;;;;;;;;;5014786;28;93431;-75
2023/07/13 12:34:06;;;;;;;5.53;2.47;;;;;;;;;;5015026;28;92788;-75
2023/07/13 12:36:34;;;;;;;16.02;3.60;;;;;;;;;;5015617;28;93185;-76
2023/07/13 12:39:03;;;;;;;10.70;3.15;;;;;;;;;;5013486;28;93548;-76
2023/07/13 12:41:31;;;;;;;5.40;2.80;;;;;;;;;;5014945;28;92479;-76
2023/07/13 12:43:58;;;;;;;9.65;3.10;;;;;;;;;;5013025;28;94824;-76
2023/07/13 12:46:28;;;;;;;7.72;2.78;;;;;;;;;;5014785;28;93779;-75
2023/07/13 12:48:55;;;;;;;;;;;;;;;;;;5018472;28;92439;-76
2023/07/13 12:51:33;;;;;;;5.78;2.92;;;;;;;;;;5015302;28;124198;-75
2023/07/13 12:54:13;;;;;;;6.47;2.40;;;;;;;;;;5014570;28;92793;-75
2023/07/13 12:56:39;;;;;;;5.97;2.38;;;;;;;;;;5015204;28;96479;-76
2023/07/13 12:59:06;;;;;;;8.43;2.60;;;;;;;;;;5014412;28;93899;-75
2023/07/13 13:01:34;;;;;;;6.25;2.83;;;;;;;;;;5015000;28;91738;-76
2023/07/13 13:04:04;;;;;;;4.70;2.60;;;;;;;;;;5014507;28;92801;-76
2023/07/13 13:06:30;;;;;;;7.10;2.50;;;;;;;;;;5014198;28;93727;-76
2023/07/13 13:09:01;;;;;;;6.40;2.22;;;;;;;;;;5015861;28;95135;-76
2023/07/13 13:11:27;;;;;;;;;;;;;;;;;;5014655;28;93429;-76
2023/07/13 13:13:54;;;;;;;4.13;1.88;;;;;;;;;;5015116;28;118782;-76
2023/07/13 13:16:23;;;;;;;4.50;2.08;;;;;;;;;;5013698;28;93012;-76
2023/07/13 13:18:50;;;;;;;3.78;1.90;;;;;;;;;;5013642;28;93808;-76
2023/07/13 13:21:18;;;;;;;6.47;2.38;;;;;;;;;;5014366;28;92503;-76
2023/07/13 13:23:45;;;;;;;6.60;2.20;;;;;;;;;;5014396;28;92387;-76
2023/07/13 13:26:15;;;;;;;8.15;1.80;;;;;;;;;;5014603;28;93105;-76
2023/07/13 13:28:43;;;;;;;7.75;1.83;;;;;;;;;;5013625;28;92452;-76
2023/07/13 13:31:12;;;;;;;4.20;2.08;;;;;;;;;;5016742;28;93259;-76
2023/07/13 13:33:43;;;;;;;4.35;2.15;;;;;;;;;;5011481;28;94861;-76
2023/07/13 13:36:10;;;;;;;;;;;;;;;;;;5014399;28;95465;-76
2023/07/13 13:38:36;;;;;;;5.60;2.60;;;;;;;;;;5013344;28;124148;-76
2023/07/13 13:41:03;;;;;;;9.77;2.30;;;;;;;;;;5002127;28;92371;-76
2023/07/13 13:43:29;;;;;;;6.57;1.83;;;;;;;;;;5011995;28;93186;-76
2023/07/13 13:45:57;;;;;;;5.32;2.00;;;;;;;;;;5013250;28;93517;-76
2023/07/13 13:48:31;;;;;;;6.40;2.17;;;;;;;;;;5013821;28;92511;-77
2023/07/13 13:50:58;;;;;;;4.22;1.85;;;;;;;;;;5013590;28;92924;-76
2023/07/13 13:53:25;;;;;;;4.60;2.00;;;;;;;;;;5017075;28;93047;-77
2023/07/13 13:55:52;;;;;;;5.38;2.00;;;;;;;;;;5014051;28;96287;-76
2023/07/13 13:58:19;;;;;;;7.32;2.00;;;;;;;;;;5003585;28;95731;-77
2023/07/13 14:00:47;;;;;;;5.82;2.25;;;;;;;;;;4993536;28;92505;-77
2023/07/13 14:03:20;;;;;;;6.30;2.25;;;;;;;;;;4992585;28;93166;-76
2023/07/13 14:05:48;;;;;;;5.13;2.15;;;;;;;;;;4993248;28;93328;-77
2023/07/13 14:08:19;;;;;;;4.57;1.83;;;;;;;;;;4993624;28;92453;-76
2023/07/13 14:10:50;;;;;;;10.38;2.60;;;;;;;;;;4997448;28;93212;-76
2023/07/13 14:13:18;;;;;;;4.65;2.13;;;;;;;;;;4992109;28;93951;-76
2023/07/13 14:15:45;;;;;;;6.60;2.53;;;;;;;;;;4997139;28;91713;-77
2023/07/13 14:18:17;;;;;;;9.95;2.85;;;;;;;;;;5012207;28;93626;-77
2023/07/13 14:20:45;;;;;;;6.20;2.00;;;;;;;;;;5013731;28;92626;-77
2023/07/13 14:23:15;;;;;;;10.95;2.88;;;;;;;;;;5010297;28;95190;-77
2023/07/13 14:25:42;;;;;;;11.52;2.70;;;;;;;;;;5012810;28;93863;-77
2023/07/13 14:28:17;;;;;;;12.32;2.72;;;;;;;;;;5013028;28;92426;-77
2023/07/13 14:30:43;;;;;;;6.60;2.80;;;;;;;;;;5013476;28;93100;-77
2023/07/13 14:33:10;;;;;;;8.65;2.30;;;;;;;;;;5013082;28;93834;-77
2023/07/13 14:35:37;;;;;;;9.13;2.72;;;;;;;;;;4996419;28;92478;-77
2023/07/13 14:38:05;;;;;;;8.05;2.75;;;;;;;;;;5007115;28;93707;-76
2023/07/13 14:40:31;;;;;;;17.80;2.08;;;;;;;;;;5000248;28;92495;-76